createdAt,value
2023-04-21T05:03:07.722Z,37.11
2023-04-21T05:04:08.821Z,36.18
2023-04-21T05:05:07.676Z,36.05
2023-04-21T05:06:08.650Z,35.94
2023-04-21T05:07:08.682Z,35.91
2023-04-21T05:08:08.684Z,35.85
2023-04-21T05:09:07.732Z,35.84
2023-04-21T05:10:08.778Z,35.81
2023-04-21T05:11:08.824Z,35.80
2023-04-21T05:12:07.878Z,35.79
2023-04-21T05:13:07.901Z,35.78
2023-04-21T05:14:08.941Z,35.73
2023-04-21T05:15:07.921Z,35.77
2023-04-21T05:16:08.984Z,35.73
2023-04-21T05:17:08.966Z,35.74
2023-04-21T05:18:08.956Z,35.73
2023-04-21T05:19:08.960Z,35.71
2023-04-21T05:20:07.952Z,35.68
2023-04-21T05:21:07.951Z,35.70
2023-04-21T05:22:07.943Z,35.69
2023-04-21T05:23:08.947Z,35.69
2023-04-21T05:24:08.977Z,35.68
2023-04-21T05:25:08.961Z,35.67
2023-04-21T05:26:07.952Z,35.70
2023-04-21T05:27:07.969Z,35.65
2023-04-21T05:28:07.969Z,35.65
2023-04-21T05:29:07.968Z,35.63
2023-04-21T05:30:07.969Z,35.63
2023-04-21T05:31:08.958Z,35.65
2023-04-21T05:32:08.991Z,35.67
2023-04-21T05:33:08.978Z,35.63
2023-04-21T05:34:08.943Z,35.68
2023-04-21T05:35:07.976Z,35.62
2023-04-21T05:36:07.953Z,35.66
2023-04-21T05:37:07.956Z,35.68
2023-04-21T05:38:08.940Z,35.65
2023-04-21T05:39:07.948Z,35.65
2023-04-21T05:40:07.947Z,35.65
2023-04-21T05:41:07.938Z,35.63
2023-04-21T05:42:07.953Z,35.63
2023-04-21T05:43:08.941Z,35.62
2023-04-21T05:44:08.924Z,35.62
2023-04-21T05:45:08.928Z,35.62
2023-04-21T05:46:07.970Z,35.61
2023-04-21T05:47:08.932Z,35.63
2023-04-21T05:48:10.374Z,35.62
2023-04-21T05:49:08.918Z,35.66
2023-04-21T05:50:08.928Z,35.65
2023-04-21T05:51:08.936Z,35.63
2023-04-21T05:52:07.903Z,35.61
2023-04-21T05:53:08.889Z,35.65
2023-04-21T05:54:07.883Z,35.61
2023-04-21T05:55:08.882Z,35.65
2023-04-21T05:56:08.878Z,35.63
2023-04-21T05:57:08.860Z,35.66
2023-04-21T05:58:08.863Z,35.66
2023-04-21T05:59:08.851Z,35.64
2023-04-21T06:00:07.860Z,35.63
2023-04-21T06:01:08.174Z,35.67
2023-04-21T06:02:07.923Z,35.60
2023-04-21T06:03:09.093Z,35.60
2023-04-21T06:04:08.979Z,35.75
2023-04-21T06:05:09.077Z,35.78
2023-04-21T06:06:08.821Z,36.03
2023-04-21T06:07:07.835Z,36.19
2023-04-21T06:08:07.814Z,36.78
2023-04-21T06:09:08.786Z,36.44
2023-04-21T06:10:08.782Z,38.02
2023-04-21T06:11:08.793Z,37.13
2023-04-21T06:12:08.770Z,36.98
2023-04-21T06:13:08.776Z,37.63
2023-04-21T06:14:08.761Z,38.07
2023-04-21T06:15:07.838Z,37.60
2023-04-21T06:16:08.788Z,37.79
2023-04-21T06:17:07.733Z,37.68
2023-04-21T06:18:07.822Z,37.83
2023-04-21T06:19:07.705Z,37.91
2023-04-21T06:20:07.715Z,38.01
2023-04-21T06:21:08.716Z,38.29
2023-04-21T06:22:08.699Z,38.37
2023-04-21T06:23:07.715Z,39.09
2023-04-21T06:24:08.679Z,38.80
2023-04-21T06:25:07.670Z,39.35
2023-04-21T06:26:07.673Z,38.99
2023-04-21T06:27:08.654Z,38.61
2023-04-21T06:28:07.663Z,38.30
2023-04-21T06:29:08.659Z,38.51
2023-04-21T06:30:07.658Z,39.25
2023-04-21T06:31:09.238Z,38.27
2023-04-21T06:32:08.793Z,38.15
2023-04-21T06:33:08.679Z,38.12
2023-04-21T06:34:08.645Z,38.43
2023-04-21T06:35:08.656Z,38.34
2023-04-21T06:36:08.654Z,38.11
2023-04-21T06:37:08.641Z,38.14
2023-04-21T06:38:08.626Z,38.10
2023-04-21T06:39:07.656Z,38.18
2023-04-21T06:40:08.644Z,38.90
2023-04-21T06:41:08.646Z,38.52
2023-04-21T06:42:08.653Z,38.39
2023-04-21T06:43:08.667Z,38.44
2023-04-21T06:44:08.671Z,38.23
2023-04-21T06:45:08.701Z,38.59
2023-04-21T06:46:08.706Z,39.45
2023-04-21T06:47:07.753Z,39.23
2023-04-21T06:48:08.739Z,39.24
2023-04-21T06:49:08.693Z,39.01
2023-04-21T06:50:08.682Z,38.96
2023-04-21T06:51:08.690Z,39.08
2023-04-21T06:52:08.710Z,38.96
2023-04-21T06:53:08.692Z,38.65
2023-04-21T06:54:08.692Z,38.97
2023-04-21T06:55:07.750Z,38.43
2023-04-21T06:56:09.198Z,38.68
2023-04-21T06:57:08.718Z,38.41
2023-04-21T06:58:08.798Z,38.31
2023-04-21T06:59:08.720Z,38.83
2023-04-21T07:00:07.771Z,38.74
2023-04-21T07:01:07.805Z,38.43
2023-04-21T07:02:07.878Z,38.21
2023-04-21T07:03:08.875Z,37.92
2023-04-21T07:04:08.809Z,38.02
2023-04-21T07:05:08.809Z,37.85
2023-04-21T07:06:07.845Z,37.82
2023-04-21T07:07:07.855Z,37.77
2023-04-21T07:08:08.849Z,37.76
2023-04-21T07:09:07.866Z,37.87
2023-04-21T07:10:08.879Z,37.78
2023-04-21T07:11:07.950Z,37.91
2023-04-21T07:12:08.940Z,37.75
2023-04-21T07:13:09.917Z,37.91
2023-04-21T07:14:08.916Z,37.78
2023-04-21T07:15:07.929Z,37.89
2023-04-21T07:16:07.968Z,37.75
2023-04-21T07:17:08.025Z,37.74
2023-04-21T07:18:09.061Z,37.63
2023-04-21T07:19:08.964Z,37.40
2023-04-21T07:20:07.985Z,37.42
2023-04-21T07:21:08.965Z,37.33
2023-04-21T07:22:08.001Z,37.36
2023-04-21T07:23:07.997Z,37.58
2023-04-21T07:24:09.010Z,37.60
2023-04-21T07:25:08.025Z,37.50
2023-04-21T07:26:08.138Z,37.57
2023-04-21T07:27:09.053Z,37.71
2023-04-21T07:28:09.028Z,37.83
2023-04-21T07:29:09.045Z,37.86
2023-04-21T07:30:09.107Z,37.89
2023-04-21T07:31:09.176Z,38.36
2023-04-21T07:32:08.174Z,38.20
2023-04-21T07:33:08.266Z,38.38
2023-04-21T07:34:09.276Z,38.50
2023-04-21T07:35:09.329Z,38.80
2023-04-21T07:36:08.373Z,39.29
2023-04-21T07:37:09.426Z,39.38
2023-04-21T07:38:09.495Z,39.73
2023-04-21T07:39:09.541Z,40.30
2023-04-21T07:40:09.570Z,39.38
2023-04-21T07:41:09.604Z,39.14
2023-04-21T07:42:08.653Z,38.42
2023-04-21T07:43:09.665Z,37.18
2023-04-21T07:44:08.639Z,35.93
2023-04-21T07:45:08.682Z,35.53
2023-04-21T07:46:09.757Z,35.99
2023-04-21T07:47:10.230Z,36.29
2023-04-21T07:48:08.876Z,36.95
2023-04-21T07:49:09.914Z,37.00
2023-04-21T07:50:09.974Z,37.13
2023-04-21T07:51:10.024Z,37.25
2023-04-21T07:52:10.250Z,36.81
2023-04-21T07:53:10.132Z,36.82
2023-04-21T07:54:10.170Z,36.54
2023-04-21T07:55:09.226Z,36.76
2023-04-21T07:56:10.301Z,36.78
2023-04-21T07:57:09.361Z,36.85
2023-04-21T07:58:10.422Z,36.89
2023-04-21T07:59:10.505Z,36.97
2023-04-21T08:00:09.573Z,36.96
2023-04-21T08:01:09.564Z,36.97
2023-04-21T08:02:10.680Z,36.95
2023-04-21T08:03:10.829Z,36.97
2023-04-21T08:04:11.065Z,36.98
2023-04-21T08:05:10.989Z,36.97
2023-04-21T08:06:11.034Z,36.99
2023-04-21T08:07:10.152Z,37.04
2023-04-21T08:08:10.885Z,36.99
2023-04-21T08:09:09.940Z,37.00
2023-04-21T08:10:11.001Z,36.99
2023-04-21T08:11:11.150Z,37.07
2023-04-21T08:12:11.095Z,37.12
2023-04-21T08:13:10.121Z,37.17
2023-04-21T08:14:10.164Z,37.18
2023-04-21T08:15:10.288Z,37.16
2023-04-21T08:16:10.298Z,37.18
2023-04-21T08:17:11.306Z,37.17
2023-04-21T08:18:10.381Z,37.15
2023-04-21T08:19:10.460Z,37.16
2023-04-21T08:20:11.368Z,37.14
2023-04-21T08:21:11.619Z,37.14
2023-04-21T08:22:10.447Z,37.12
2023-04-21T08:23:11.649Z,37.10
2023-04-21T08:24:11.484Z,37.10
2023-04-21T08:25:10.501Z,37.10
2023-04-21T08:26:10.554Z,37.08
2023-04-21T08:27:10.585Z,37.04
2023-04-21T08:28:11.600Z,37.02
2023-04-21T08:29:11.658Z,37.02
2023-04-21T08:30:11.744Z,36.99
2023-04-21T08:31:11.717Z,36.97
2023-04-21T08:32:11.776Z,36.99
2023-04-21T08:33:10.839Z,36.97
2023-04-21T08:34:11.015Z,36.95
2023-04-21T08:35:10.842Z,36.91
2023-04-21T08:36:18.428Z,36.88
2023-04-21T08:37:11.870Z,36.85
2023-04-21T08:38:11.856Z,36.80
2023-04-21T08:39:11.818Z,36.82
2023-04-21T08:40:10.817Z,36.82
2023-04-21T08:41:11.818Z,36.86
2023-04-21T08:42:12.262Z,36.88
2023-04-21T08:43:11.802Z,36.81
2023-04-21T08:44:11.784Z,36.78
2023-04-21T08:45:11.786Z,36.80
2023-04-21T08:46:10.891Z,36.82
2023-04-21T08:47:11.778Z,36.80
2023-04-21T08:48:11.814Z,36.83
2023-04-21T08:49:11.765Z,36.83
2023-04-21T08:50:11.746Z,36.79
2023-04-21T08:51:11.767Z,36.76
2023-04-21T08:52:11.745Z,36.77
2023-04-21T08:53:10.748Z,36.74
2023-04-21T08:54:11.741Z,36.69
2023-04-21T08:55:10.715Z,36.70
2023-04-21T08:56:11.866Z,36.64
2023-04-21T08:57:15.788Z,36.60
2023-04-21T08:58:11.742Z,36.54
2023-04-21T08:59:10.784Z,36.47
2023-04-21T09:00:11.821Z,36.42
2023-04-21T09:01:11.860Z,36.38
2023-04-21T09:02:11.085Z,36.38
2023-04-21T09:03:23.199Z,36.35
2023-04-21T09:04:12.141Z,36.37
2023-04-21T09:05:12.238Z,36.37
2023-04-21T09:06:12.089Z,36.41
2023-04-21T09:07:11.916Z,36.40
2023-04-21T09:08:11.891Z,36.41
2023-04-21T09:09:11.888Z,36.42
2023-04-21T09:10:11.899Z,36.42
2023-04-21T09:11:11.883Z,36.42
2023-04-21T09:12:10.888Z,36.42
2023-04-21T09:13:11.870Z,36.44
2023-04-21T09:14:11.853Z,36.47
2023-04-21T09:15:11.846Z,36.40
2023-04-21T09:16:11.920Z,36.39
2023-04-21T09:17:10.990Z,36.42
2023-04-21T09:18:12.003Z,36.40
2023-04-21T09:19:11.039Z,36.45
2023-04-21T09:20:12.073Z,36.50
2023-04-21T09:21:12.122Z,36.50
2023-04-21T09:22:12.154Z,36.55
2023-04-21T09:23:12.177Z,36.54
2023-04-21T09:24:11.212Z,36.53
2023-04-21T09:25:12.253Z,36.51
2023-04-21T09:26:12.328Z,36.54
2023-04-21T09:27:11.371Z,36.53
2023-04-21T09:28:11.368Z,36.57
2023-04-21T09:29:12.389Z,36.58
2023-04-21T09:30:11.427Z,36.59
2023-04-21T09:31:12.594Z,36.59
2023-04-21T09:32:12.483Z,36.63
2023-04-21T09:33:27.158Z,36.64
2023-04-21T09:34:12.628Z,36.64
2023-04-21T09:35:11.513Z,36.63
2023-04-21T09:36:12.498Z,36.67
2023-04-21T09:37:12.487Z,36.65
2023-04-21T09:38:11.503Z,36.65
2023-04-21T09:39:34.209Z,36.60
2023-04-21T09:40:12.475Z,36.59
2023-04-21T09:41:12.455Z,36.56
2023-04-21T09:42:11.498Z,36.57
2023-04-21T09:43:12.457Z,36.56
2023-04-21T09:44:11.474Z,36.60
2023-04-21T09:46:11.471Z,36.57
2023-04-21T09:47:12.422Z,36.54
2023-04-21T09:48:12.788Z,36.62
2023-04-21T09:49:11.403Z,36.62
2023-04-21T09:50:12.986Z,36.70
2023-04-21T09:51:30.879Z,36.69
2023-04-21T09:52:19.122Z,36.74
2023-04-21T09:53:12.799Z,36.84
2023-04-21T09:54:26.000Z,36.84
2023-04-21T09:55:12.397Z,36.89
2023-04-21T09:56:12.347Z,36.90
2023-04-21T09:57:12.363Z,37.05
2023-04-21T09:58:11.361Z,37.30
2023-04-21T09:59:12.347Z,37.38
2023-04-21T10:00:11.326Z,37.78
2023-04-21T10:01:12.431Z,37.58
2023-04-21T10:02:12.748Z,37.39
2023-04-21T10:03:11.528Z,37.49
2023-04-21T10:04:12.540Z,37.42
2023-04-21T10:05:12.429Z,37.43
2023-04-21T10:06:12.541Z,37.36
2023-04-21T10:07:12.284Z,37.57
2023-04-21T10:08:12.320Z,37.49
2023-04-21T10:09:12.291Z,37.67
2023-04-21T10:10:12.269Z,42.32
2023-04-21T10:11:11.253Z,39.59
2023-04-21T10:12:12.238Z,38.88
2023-04-21T10:13:12.235Z,38.74
2023-04-21T10:14:12.227Z,38.45
2023-04-21T10:15:11.229Z,38.39
2023-04-21T10:16:12.288Z,38.39
2023-04-21T10:17:11.247Z,38.29
2023-04-21T10:18:12.263Z,38.23
2023-04-21T10:19:12.209Z,38.24
2023-04-21T10:20:11.202Z,37.90
2023-04-21T10:21:11.194Z,37.72
2023-04-21T10:22:11.206Z,37.29
2023-04-21T10:23:12.175Z,37.51
2023-04-21T10:24:12.176Z,37.46
2023-04-21T10:25:12.181Z,37.20
2023-04-21T10:26:12.185Z,37.31
2023-04-21T10:27:12.197Z,37.45
2023-04-21T10:28:12.143Z,37.56
2023-04-21T10:29:11.152Z,37.59
2023-04-21T10:30:11.148Z,37.49
2023-04-21T10:31:12.185Z,37.44
2023-04-21T10:32:12.157Z,37.33
2023-04-21T10:33:12.131Z,37.34
2023-04-21T10:34:12.127Z,37.28
2023-04-21T10:35:12.157Z,36.89
2023-04-21T10:36:12.107Z,37.23
2023-04-21T10:37:12.095Z,37.25
2023-04-21T10:38:11.208Z,37.10
2023-04-21T10:39:11.148Z,37.01
2023-04-21T10:40:12.169Z,37.29
2023-04-21T10:41:12.237Z,37.45
2023-04-21T10:42:11.262Z,37.48
2023-04-21T10:43:11.293Z,37.56
2023-04-21T10:44:11.315Z,37.55
2023-04-21T10:45:12.344Z,37.22
2023-04-21T10:46:12.456Z,37.25
2023-04-21T10:47:12.513Z,37.08
2023-04-21T10:48:12.854Z,36.91
2023-04-21T10:49:12.496Z,36.54
2023-04-21T10:50:12.539Z,36.59
2023-04-21T10:51:12.562Z,36.61
2023-04-21T10:52:11.567Z,36.62
2023-04-21T10:53:12.634Z,36.60
2023-04-21T10:54:12.645Z,36.62
2023-04-21T10:55:11.667Z,36.25
2023-04-21T10:56:12.701Z,36.35
2023-04-21T10:57:11.745Z,36.19
2023-04-21T10:58:11.798Z,36.08
2023-04-21T10:59:12.818Z,35.80
2023-04-21T11:00:11.818Z,35.80
2023-04-21T11:01:12.899Z,35.87
2023-04-21T11:02:12.996Z,35.68
2023-04-21T11:03:12.030Z,36.18
2023-04-21T11:04:13.048Z,36.13
2023-04-21T11:05:12.039Z,36.21
2023-04-21T11:06:12.969Z,36.30
2023-04-21T11:07:12.985Z,36.36
2023-04-21T11:08:13.127Z,36.20
2023-04-21T11:09:13.109Z,36.16
2023-04-21T11:10:12.068Z,36.25
2023-04-21T11:11:12.110Z,36.19
2023-04-21T11:12:13.108Z,36.43
2023-04-21T11:13:12.137Z,36.27
2023-04-21T11:14:12.164Z,36.24
2023-04-21T11:15:13.215Z,36.37
2023-04-21T11:16:13.293Z,36.20
2023-04-21T11:17:13.289Z,36.24
2023-04-21T11:18:13.342Z,36.16
2023-04-21T11:19:13.329Z,36.72
2023-04-21T11:20:13.391Z,36.15
2023-04-21T11:21:13.462Z,35.95
2023-04-21T11:22:13.458Z,36.01
2023-04-21T11:23:12.514Z,37.54
2023-04-21T11:24:13.552Z,35.95
2023-04-21T11:25:12.619Z,36.14
2023-04-21T11:26:13.641Z,35.84
2023-04-21T11:27:12.679Z,35.70
2023-04-21T11:28:13.733Z,35.74
2023-04-21T11:29:13.751Z,35.64
2023-04-21T11:30:13.794Z,35.74
2023-04-21T11:31:12.922Z,35.82
2023-04-21T11:32:13.874Z,35.80
2023-04-21T11:33:14.023Z,35.96
2023-04-21T11:34:12.960Z,35.98
2023-04-21T11:35:13.018Z,36.03
2023-04-21T11:36:14.054Z,36.05
2023-04-21T11:37:14.095Z,36.03
2023-04-21T11:38:14.326Z,36.10
2023-04-21T11:39:13.185Z,36.09
2023-04-21T11:40:14.212Z,36.08
2023-04-21T11:41:14.282Z,36.05
2023-04-21T11:42:14.313Z,36.04
2023-04-21T11:43:14.363Z,36.04
2023-04-21T11:44:14.399Z,36.05
2023-04-21T11:45:13.453Z,36.07
2023-04-21T11:46:13.553Z,36.07
2023-04-21T11:47:14.524Z,36.10
2023-04-21T11:48:13.676Z,36.09
2023-04-21T11:49:14.635Z,36.13
2023-04-21T11:50:13.684Z,36.14
2023-04-21T11:51:14.720Z,36.16
2023-04-21T11:52:14.778Z,36.18
2023-04-21T11:53:14.845Z,36.17
2023-04-21T11:54:13.884Z,36.22
2023-04-21T11:55:14.921Z,36.23
2023-04-21T11:56:14.979Z,36.26
2023-04-21T11:57:14.054Z,36.28
2023-04-21T11:58:14.086Z,36.29
2023-04-21T11:59:14.135Z,36.32
2023-04-21T12:00:15.189Z,36.34
2023-04-21T12:01:14.239Z,36.50
2023-04-21T12:02:15.336Z,36.94
2023-04-21T12:03:14.459Z,36.99
2023-04-21T12:04:15.459Z,37.05
2023-04-21T12:05:14.447Z,36.92
2023-04-21T12:06:14.554Z,36.78
2023-04-21T12:07:14.534Z,35.91
2023-04-21T12:08:14.550Z,35.49
2023-04-21T12:09:14.558Z,34.61
2023-04-21T12:10:15.569Z,34.10
2023-04-21T12:11:15.590Z,33.50
2023-04-21T12:12:15.659Z,32.80
2023-04-21T12:13:18.059Z,32.85
2023-04-21T12:14:15.684Z,32.82
2023-04-21T12:15:14.676Z,32.79
2023-04-21T12:16:15.694Z,32.39
2023-04-21T12:17:15.670Z,32.08
2023-04-21T12:18:15.698Z,32.78
2023-04-21T12:19:15.640Z,32.84
2023-04-21T12:20:14.653Z,33.11
2023-04-21T12:21:14.635Z,33.41
2023-04-21T12:22:14.629Z,33.56
2023-04-21T12:23:14.615Z,33.62
2023-04-21T12:24:15.614Z,33.76
2023-04-21T12:25:14.623Z,33.83
2023-04-21T12:26:14.605Z,33.94
2023-04-21T12:27:14.602Z,33.87
2023-04-21T12:28:15.597Z,33.99
2023-04-21T12:29:14.622Z,34.00
2023-04-21T12:30:14.567Z,34.05
2023-04-21T12:31:15.605Z,33.96
2023-04-21T12:32:15.555Z,34.02
2023-04-21T12:33:15.598Z,34.05
2023-04-21T12:34:14.720Z,34.16
2023-04-21T12:35:14.533Z,34.72
2023-04-21T12:36:14.529Z,35.12
2023-04-21T12:37:14.535Z,34.78
2023-04-21T12:38:15.848Z,35.21
2023-04-21T12:39:15.525Z,35.46
2023-04-21T12:40:15.501Z,35.48
2023-04-21T12:41:15.506Z,35.79
2023-04-21T12:42:15.486Z,35.77
2023-04-21T12:43:15.496Z,35.68
2023-04-21T12:44:14.484Z,35.61
2023-04-21T12:45:15.539Z,35.61
2023-04-21T12:46:15.603Z,35.51
2023-04-21T12:47:15.671Z,35.56
2023-04-21T12:48:15.734Z,35.51
2023-04-21T12:49:15.719Z,35.54
2023-04-21T12:50:15.827Z,35.69
2023-04-21T12:51:15.856Z,35.78
2023-04-21T12:52:15.930Z,35.86
2023-04-21T12:53:14.984Z,35.87
2023-04-21T12:54:16.059Z,35.95
2023-04-21T12:55:15.143Z,35.97
2023-04-21T12:56:16.176Z,35.89
2023-04-21T12:57:15.245Z,35.76
2023-04-21T12:58:15.279Z,35.87
2023-04-21T12:59:15.360Z,35.86
2023-04-21T13:00:15.429Z,35.81
2023-04-21T13:01:16.521Z,35.75
2023-04-21T13:02:16.597Z,35.63
2023-04-21T13:03:16.719Z,35.68
2023-04-21T13:04:16.888Z,35.49
2023-04-21T13:05:15.689Z,35.42
2023-04-21T13:06:15.718Z,35.38
2023-04-21T13:07:16.772Z,35.41
2023-04-21T13:08:16.832Z,35.39
2023-04-21T13:09:15.860Z,35.29
2023-04-21T13:10:15.861Z,35.26
2023-04-21T13:11:15.895Z,35.20
2023-04-21T13:12:16.915Z,35.18
2023-04-21T13:13:16.930Z,35.14
2023-04-21T13:14:16.008Z,35.10
2023-04-21T13:15:17.012Z,35.09
2023-04-21T13:16:17.081Z,35.03
2023-04-21T13:17:17.190Z,34.96
2023-04-21T13:18:16.098Z,34.98
2023-04-21T13:19:17.153Z,34.95
2023-04-21T13:20:17.263Z,34.94
2023-04-21T13:21:17.246Z,34.96
2023-04-21T13:22:17.313Z,34.90
2023-04-21T13:23:17.371Z,34.81
2023-04-21T13:24:17.443Z,34.75
2023-04-21T13:25:16.474Z,34.69
2023-04-21T13:26:17.564Z,34.61
2023-04-21T13:27:16.566Z,34.53
2023-04-21T13:28:16.635Z,34.52
2023-04-21T13:29:16.645Z,34.46
2023-04-21T13:30:17.675Z,34.53
2023-04-21T13:31:16.747Z,34.40
2023-04-21T13:32:17.713Z,34.36
2023-04-21T13:33:17.789Z,34.28
2023-04-21T13:34:17.748Z,34.29
2023-04-21T13:35:17.773Z,34.26
2023-04-21T13:36:17.797Z,34.23
2023-04-21T13:37:17.858Z,34.25
2023-04-21T13:38:17.844Z,34.12
2023-04-21T13:39:16.863Z,34.18
2023-04-21T13:40:16.849Z,34.18
2023-04-21T13:41:17.864Z,34.13
2023-04-21T13:42:17.856Z,34.22
2023-04-21T13:43:16.886Z,34.16
2023-04-21T13:44:16.900Z,34.12
2023-04-21T13:45:17.888Z,34.21
2023-04-21T13:46:16.901Z,34.00
2023-04-21T13:47:17.875Z,33.97
2023-04-21T13:48:18.012Z,33.89
2023-04-21T13:49:17.396Z,33.83
2023-04-21T13:50:17.910Z,33.80
2023-04-21T13:51:17.913Z,33.77
2023-04-21T13:52:16.975Z,33.84
2023-04-21T13:53:18.666Z,33.88
2023-04-21T13:54:18.382Z,34.07
2023-04-21T13:55:17.924Z,34.15
2023-04-21T13:56:16.914Z,34.22
2023-04-21T13:57:17.922Z,34.19
2023-04-21T13:58:17.925Z,34.20
2023-04-21T13:59:17.387Z,34.30
2023-04-21T14:00:16.928Z,34.38
2023-04-21T14:01:20.675Z,34.40
2023-04-21T14:02:16.943Z,34.44
2023-04-21T14:03:17.932Z,34.48
2023-04-21T14:04:18.454Z,34.51
2023-04-21T14:05:17.145Z,34.52
2023-04-21T14:06:17.896Z,34.66
2023-04-21T14:07:16.826Z,34.69
2023-04-21T14:08:17.822Z,34.74
2023-04-21T14:09:16.833Z,34.78
2023-04-21T14:10:17.812Z,34.68
2023-04-21T14:11:17.815Z,34.49
2023-04-21T14:12:17.813Z,34.38
2023-04-21T14:13:27.375Z,34.28
2023-04-21T14:14:27.696Z,34.42
2023-04-21T14:15:17.839Z,34.42
2023-04-21T14:16:17.801Z,34.51
2023-04-21T14:17:17.780Z,34.57
2023-04-21T14:18:16.866Z,34.55
2023-04-21T14:19:16.764Z,34.51
2023-04-21T14:20:16.757Z,34.26
2023-04-21T14:21:16.779Z,34.03
2023-04-21T14:22:16.742Z,33.62
2023-04-21T14:23:16.738Z,33.26
2023-04-21T14:24:17.763Z,33.15
2023-04-21T14:25:17.728Z,32.95
2023-04-21T14:26:16.719Z,32.78
2023-04-21T14:27:17.713Z,32.69
2023-04-21T14:28:16.738Z,32.78
2023-04-21T14:29:17.692Z,32.74
2023-04-21T14:30:16.693Z,32.61
2023-04-21T14:31:19.114Z,32.58
2023-04-21T14:32:17.714Z,32.64
2023-04-21T14:33:17.681Z,32.73
2023-04-21T14:34:17.670Z,32.74
2023-04-21T14:35:16.670Z,32.98
2023-04-21T14:36:17.666Z,33.01
2023-04-21T14:37:17.684Z,33.07
2023-04-21T14:38:17.694Z,33.04
2023-04-21T14:39:16.645Z,33.11
2023-04-21T14:40:16.668Z,33.13
2023-04-21T14:41:16.622Z,33.14
2023-04-21T14:42:16.622Z,33.19
2023-04-21T14:43:16.653Z,33.06
2023-04-21T14:44:16.603Z,33.05
2023-04-21T14:45:17.623Z,33.11
2023-04-21T14:46:16.677Z,33.14
2023-04-21T14:47:16.712Z,33.12
2023-04-21T14:48:17.676Z,33.15
2023-04-21T14:49:17.585Z,33.22
2023-04-21T14:50:16.558Z,33.11
2023-04-21T14:51:17.540Z,33.19
2023-04-21T14:52:17.575Z,33.13
2023-04-21T14:53:17.606Z,33.17
2023-04-21T14:54:17.594Z,33.09
2023-04-21T14:55:17.582Z,32.92
2023-04-21T14:56:16.641Z,32.87
2023-04-21T14:57:19.525Z,32.75
2023-04-21T14:58:17.686Z,32.75
2023-04-21T14:59:17.684Z,32.53
2023-04-21T15:00:17.686Z,32.62
2023-04-21T15:01:16.767Z,32.49
2023-04-21T15:02:17.778Z,32.44
2023-04-21T15:03:17.759Z,32.42
2023-04-21T15:04:16.778Z,32.40
2023-04-21T15:05:17.663Z,32.43
2023-04-21T15:06:17.622Z,32.33
2023-04-21T15:07:23.372Z,32.38
2023-04-21T15:08:17.672Z,32.26
2023-04-21T15:09:17.655Z,32.34
2023-04-21T15:10:17.602Z,31.95
2023-04-21T15:11:17.625Z,31.37
2023-04-21T15:12:17.622Z,31.19
2023-04-21T15:13:17.581Z,31.62
2023-04-21T15:14:16.566Z,31.75
2023-04-21T15:15:16.559Z,31.83
2023-04-21T15:16:17.589Z,31.87
2023-04-21T15:17:17.540Z,31.94
2023-04-21T15:18:17.581Z,32.02
2023-04-21T15:19:16.527Z,32.04
2023-04-21T15:20:17.519Z,32.16
2023-04-21T15:21:17.535Z,32.17
2023-04-21T15:22:17.520Z,32.08
2023-04-21T15:23:17.505Z,32.09
2023-04-21T15:24:17.514Z,32.10
2023-04-21T15:25:17.513Z,32.13
2023-04-21T15:26:16.557Z,32.24
2023-04-21T15:27:17.484Z,32.27
2023-04-21T15:28:16.471Z,32.23
2023-04-21T15:29:17.480Z,32.28
